createdAt,value
2018-05-26T00:01:00.274Z,96.50
2018-05-26T00:03:27.844Z,96.57
2018-05-26T00:05:55.494Z,96.75
2018-05-26T00:08:23.221Z,96.72
2018-05-26T00:10:50.937Z,96.96
2018-05-26T00:13:18.488Z,97.04
2018-05-26T00:15:46.097Z,96.22
2018-05-26T00:18:13.655Z,95.97
2018-05-26T00:20:41.261Z,95.85
2018-05-26T00:23:08.889Z,95.86
2018-05-26T00:25:36.456Z,95.45
2018-05-26T00:28:04.028Z,95.24
2018-05-26T00:30:31.637Z,95.54
2018-05-26T00:32:59.191Z,96.01
2018-05-26T00:35:26.740Z,96.03
2018-05-26T00:37:54.361Z,96.23
2018-05-26T00:40:21.908Z,96.35
2018-05-26T00:42:49.671Z,96.61
2018-05-26T00:45:17.388Z,96.82
2018-05-26T00:47:44.952Z,97.24
2018-05-26T00:50:12.516Z,97.52
2018-05-26T00:52:40.244Z,97.75
2018-05-26T00:55:08.062Z,97.90
2018-05-26T00:57:35.805Z,97.60
2018-05-26T01:00:03.699Z,97.44
2018-05-26T01:02:31.257Z,97.46
2018-05-26T01:04:58.932Z,97.36
2018-05-26T01:07:26.494Z,96.93
2018-05-26T01:09:54.253Z,96.48
2018-05-26T01:12:21.801Z,96.22
2018-05-26T01:14:49.361Z,96.48
2018-05-26T01:17:16.914Z,96.61
2018-05-26T01:19:44.465Z,96.89
2018-05-26T01:22:12.161Z,96.64
2018-05-26T01:24:39.761Z,96.80
2018-05-26T01:27:07.340Z,96.49
2018-05-26T01:29:34.889Z,95.59
2018-05-26T01:32:02.733Z,96.16
2018-05-26T01:34:31.096Z,96.30
2018-05-26T01:36:58.641Z,96.73
2018-05-26T01:39:26.288Z,97.05
2018-05-26T01:41:54.108Z,96.62
2018-05-26T01:44:21.766Z,96.72
2018-05-26T01:46:49.447Z,96.78
2018-05-26T01:49:17.156Z,96.85
2018-05-26T01:51:44.712Z,97.02
2018-05-26T01:54:12.387Z,96.51
2018-05-26T01:56:40.011Z,96.08
2018-05-26T01:59:07.726Z,96.54
2018-05-26T02:01:35.446Z,97.20
2018-05-26T02:04:03.011Z,97.10
2018-05-26T02:06:30.699Z,97.70
2018-05-26T02:08:58.403Z,97.99
2018-05-26T02:11:26.131Z,96.87
2018-05-26T02:13:53.672Z,96.18
2018-05-26T02:16:21.224Z,96.24
2018-05-26T02:18:48.979Z,96.30
2018-05-26T02:21:16.545Z,96.37
2018-05-26T02:23:44.309Z,96.47
2018-05-26T02:26:11.873Z,96.33
2018-05-26T02:28:39.645Z,96.70
2018-05-26T02:31:07.213Z,96.90
2018-05-26T02:33:34.891Z,97.11
2018-05-26T02:36:02.503Z,97.57
2018-05-26T02:38:30.118Z,97.49
2018-05-26T02:40:57.686Z,98.01
2018-05-26T02:43:25.361Z,98.24
2018-05-26T02:45:52.933Z,98.18
2018-05-26T02:48:20.679Z,97.93
2018-05-26T02:50:48.415Z,98.13
2018-05-26T02:53:15.976Z,98.01
2018-05-26T02:55:43.525Z,98.49
2018-05-26T02:58:11.261Z,98.64
2018-05-26T03:00:38.823Z,98.45
2018-05-26T03:03:06.447Z,98.50
2018-05-26T03:05:39.541Z,98.31
2018-05-26T03:08:12.973Z,98.64
2018-05-26T03:10:46.016Z,98.21
2018-05-26T03:13:19.101Z,98.32
2018-05-26T03:15:49.153Z,98.39
2018-05-26T03:18:16.929Z,97.70
2018-05-26T03:20:44.496Z,96.80
2018-05-26T03:23:12.059Z,96.67
2018-05-26T03:25:39.620Z,96.61
2018-05-26T03:28:07.172Z,96.48
2018-05-26T03:30:34.980Z,96.06
2018-05-26T03:33:02.539Z,95.66
2018-05-26T03:35:30.098Z,95.24
2018-05-26T03:37:57.717Z,94.78
2018-05-26T03:40:25.269Z,95.21
2018-05-26T03:42:52.882Z,94.93
2018-05-26T03:45:20.440Z,93.99
2018-05-26T03:47:48.048Z,94.33
2018-05-26T03:50:15.597Z,94.44
2018-05-26T03:52:43.141Z,94.23
2018-05-26T03:58:26.321Z,95.04
2018-05-26T04:00:53.991Z,95.24
2018-05-26T04:03:21.552Z,95.28
2018-05-26T04:05:49.297Z,94.54
2018-05-26T04:08:17.110Z,93.76
2018-05-26T04:10:44.800Z,94.14
2018-05-26T04:13:12.351Z,93.99
2018-05-26T04:15:39.952Z,93.85
2018-05-26T04:18:07.518Z,93.02
2018-05-26T04:20:35.217Z,91.60
2018-05-26T04:23:03.027Z,91.52
2018-05-26T04:25:30.585Z,90.89
2018-05-26T04:27:58.147Z,90.80
2018-05-26T04:30:25.692Z,90.54
2018-05-26T04:32:53.249Z,90.80
2018-05-26T04:35:21.030Z,91.64
2018-05-26T04:37:48.664Z,90.95
2018-05-26T04:40:16.272Z,90.72
2018-05-26T04:42:44.005Z,90.44
2018-05-26T04:45:11.572Z,90.32
2018-05-26T04:47:39.174Z,90.42
2018-05-26T04:50:07.031Z,90.62
2018-05-26T04:52:34.621Z,90.06
2018-05-26T04:55:02.188Z,88.91
2018-05-26T04:57:29.736Z,88.91
2018-05-26T04:59:57.297Z,88.07
2018-05-26T05:02:24.961Z,87.91
2018-05-26T05:04:52.520Z,87.07
2018-05-26T05:07:20.256Z,85.46
2018-05-26T05:09:47.925Z,84.93
2018-05-26T05:12:15.685Z,84.41
2018-05-26T05:14:43.310Z,83.75
2018-05-26T05:17:10.864Z,83.77
2018-05-26T05:19:38.527Z,83.77
2018-05-26T05:22:06.137Z,83.20
2018-05-26T05:24:33.753Z,81.29
2018-05-26T05:27:01.426Z,80.73
2018-05-26T05:29:29.168Z,79.94
2018-05-26T05:31:56.897Z,78.03
2018-05-26T05:34:24.759Z,76.23
2018-05-26T05:36:52.325Z,76.64
2018-05-26T05:39:20.005Z,77.34
2018-05-26T05:41:47.563Z,75.61
2018-05-26T05:44:15.230Z,78.50
2018-05-26T05:46:42.836Z,77.38
2018-05-26T05:49:10.410Z,78.30
2018-05-26T05:51:38.013Z,79.23
2018-05-26T05:54:05.803Z,77.58
2018-05-26T05:56:33.541Z,77.60
2018-05-26T05:59:01.100Z,76.96
2018-05-26T06:01:28.757Z,78.86
2018-05-26T06:03:56.295Z,74.85
2018-05-26T06:06:23.848Z,76.64
2018-05-26T06:08:51.708Z,75.89
2018-05-26T06:11:19.429Z,75.18
2018-05-26T06:13:47.248Z,72.24
2018-05-26T06:16:14.958Z,72.40
2018-05-26T06:18:42.525Z,71.44
2018-05-26T06:21:10.190Z,72.59
2018-05-26T06:23:38.033Z,73.15
2018-05-26T06:26:05.636Z,72.96
2018-05-26T06:28:33.513Z,73.31
2018-05-26T06:31:01.076Z,72.51
2018-05-26T06:33:28.681Z,72.14
2018-05-26T06:35:56.259Z,72.07
2018-05-26T06:38:23.934Z,72.59
2018-05-26T06:40:51.723Z,71.50
2018-05-26T06:43:19.333Z,71.35
2018-05-26T06:45:46.941Z,71.51
2018-05-26T06:48:14.550Z,71.72
2018-05-26T06:50:42.205Z,70.35
2018-05-26T06:53:09.828Z,70.75
2018-05-26T06:55:37.655Z,70.50
2018-05-26T06:58:05.224Z,69.94
2018-05-26T07:00:32.896Z,70.38
2018-05-26T07:03:00.506Z,71.17
2018-05-26T07:05:28.052Z,69.63
2018-05-26T07:07:55.621Z,69.36
2018-05-26T07:10:23.188Z,70.96
2018-05-26T07:12:50.761Z,68.39
2018-05-26T07:15:18.361Z,68.21
2018-05-26T07:17:46.563Z,68.88
2018-05-26T07:20:14.183Z,69.02
2018-05-26T07:22:41.751Z,67.76
2018-05-26T07:25:09.308Z,67.02
2018-05-26T07:27:36.993Z,67.80
2018-05-26T07:30:04.560Z,68.70
2018-05-26T07:32:32.100Z,68.16
2018-05-26T07:34:59.669Z,67.96
2018-05-26T07:37:27.216Z,65.94
2018-05-26T07:39:54.920Z,67.12
2018-05-26T07:42:22.468Z,66.35
2018-05-26T07:44:50.015Z,65.96
2018-05-26T07:47:17.604Z,65.87
2018-05-26T07:49:45.152Z,61.59
2018-05-26T07:52:12.713Z,62.20
2018-05-26T07:54:40.260Z,62.70
2018-05-26T07:57:07.835Z,62.54
2018-05-26T07:59:35.384Z,62.89
2018-05-26T08:02:03.005Z,62.99
2018-05-26T08:04:30.548Z,63.92
2018-05-26T08:06:58.100Z,64.16
2018-05-26T08:09:25.654Z,64.53
2018-05-26T08:11:53.205Z,64.92
2018-05-26T08:14:20.764Z,62.06
2018-05-26T08:16:48.401Z,59.93
2018-05-26T08:19:15.952Z,59.51
2018-05-26T08:21:43.505Z,57.17
2018-05-26T08:24:11.065Z,56.83
2018-05-26T08:26:38.620Z,56.64
2018-05-26T08:29:06.172Z,59.01
2018-05-26T08:31:33.733Z,57.71
2018-05-26T08:34:01.285Z,58.38
2018-05-26T08:36:28.845Z,58.47
2018-05-26T08:38:56.403Z,59.86
2018-05-26T08:41:24.013Z,57.37
2018-05-26T08:43:51.559Z,58.06
2018-05-26T08:46:19.103Z,57.90
2018-05-26T08:48:46.684Z,55.64
2018-05-26T08:51:14.240Z,55.01
2018-05-26T08:53:41.839Z,55.73
2018-05-26T08:56:09.381Z,54.39
2018-05-26T08:58:36.948Z,55.43
2018-05-26T09:01:04.505Z,53.45
2018-05-26T09:03:32.164Z,54.40
2018-05-26T09:05:59.689Z,54.96
2018-05-26T09:08:27.240Z,52.17
2018-05-26T09:10:54.810Z,53.53
2018-05-26T09:13:22.360Z,53.93
2018-05-26T09:15:50.266Z,54.85
2018-05-26T09:18:17.865Z,54.36
2018-05-26T09:20:45.442Z,54.94
2018-05-26T09:23:12.994Z,53.83
2018-05-26T09:25:40.540Z,53.50
2018-05-26T09:28:08.096Z,53.45
2018-05-26T09:30:35.741Z,52.47
2018-05-26T09:33:03.292Z,51.29
2018-05-26T09:35:30.837Z,52.67
2018-05-26T09:37:58.437Z,50.66
2018-05-26T09:40:25.993Z,50.98
2018-05-26T09:42:53.535Z,50.55
2018-05-26T09:45:21.084Z,51.18
2018-05-26T09:47:48.633Z,51.31
2018-05-26T09:50:16.193Z,50.31
2018-05-26T09:52:43.749Z,50.87
2018-05-26T09:55:11.308Z,50.98
2018-05-26T09:57:38.905Z,49.50
2018-05-26T10:00:06.549Z,52.15
2018-05-26T10:02:34.103Z,53.15
2018-05-26T10:05:01.660Z,52.09
2018-05-26T10:07:29.213Z,52.69
2018-05-26T10:09:56.772Z,52.01
2018-05-26T10:12:24.346Z,52.08
2018-05-26T10:14:51.906Z,52.77
2018-05-26T10:17:19.472Z,52.19
2018-05-26T10:19:47.012Z,51.47
2018-05-26T10:22:14.625Z,52.07
2018-05-26T10:24:42.168Z,52.51
2018-05-26T10:27:09.720Z,50.21
2018-05-26T10:29:37.276Z,52.82
2018-05-26T10:32:04.865Z,53.61
2018-05-26T10:34:32.434Z,52.62
2018-05-26T10:36:59.984Z,52.03
2018-05-26T10:39:27.628Z,51.45
2018-05-26T10:41:55.189Z,55.21
2018-05-26T10:44:22.837Z,52.31
2018-05-26T10:46:50.402Z,50.99
2018-05-26T10:49:18.021Z,51.18
2018-05-26T10:51:45.585Z,52.25
2018-05-26T10:54:13.137Z,52.44
2018-05-26T10:56:40.977Z,51.25
2018-05-26T10:59:08.543Z,52.38
2018-05-26T11:01:36.137Z,52.92
2018-05-26T11:04:04.265Z,49.92
2018-05-26T11:06:43.501Z,51.12
2018-05-26T11:09:11.058Z,50.64
2018-05-26T11:11:38.608Z,50.96
2018-05-26T11:14:06.176Z,50.99
2018-05-26T11:16:33.761Z,48.84
2018-05-26T11:19:01.332Z,49.64
2018-05-26T11:21:28.896Z,51.26
2018-05-26T11:23:56.578Z,51.35
2018-05-26T11:26:24.064Z,50.89
2018-05-26T11:28:51.710Z,51.13
2018-05-26T11:31:19.241Z,50.87
2018-05-26T11:33:46.787Z,51.04
2018-05-26T11:36:14.380Z,51.00
2018-05-26T11:38:41.928Z,52.12
2018-05-26T11:41:09.487Z,51.18
2018-05-26T11:43:37.054Z,51.14
2018-05-26T11:46:04.636Z,50.64
2018-05-26T11:48:32.185Z,50.13
2018-05-26T11:50:59.781Z,50.10
2018-05-26T11:53:27.331Z,50.07
2018-05-26T11:55:54.881Z,50.60
2018-05-26T11:58:22.436Z,49.58
2018-05-26T12:00:49.984Z,48.00
2018-05-26T12:03:17.557Z,47.70
2018-05-26T12:05:45.105Z,45.97
2018-05-26T12:08:12.676Z,44.53
2018-05-26T12:10:40.248Z,42.72
2018-05-26T12:13:07.805Z,43.78
2018-05-26T12:15:35.367Z,42.18
2018-05-26T12:18:02.929Z,43.57
2018-05-26T12:20:30.492Z,43.37
2018-05-26T12:22:58.085Z,43.43
2018-05-26T12:25:25.711Z,44.74
2018-05-26T12:27:53.287Z,48.02
2018-05-26T12:30:20.836Z,47.92
2018-05-26T12:32:48.510Z,46.10
2018-05-26T12:35:16.338Z,45.80
2018-05-26T12:37:43.888Z,45.30
2018-05-26T12:40:11.440Z,46.15
2018-05-26T12:42:38.989Z,43.71
2018-05-26T12:45:06.603Z,43.05
2018-05-26T12:47:34.148Z,42.40
2018-05-26T12:50:01.701Z,42.91
2018-05-26T12:52:29.251Z,42.36
2018-05-26T12:54:56.799Z,42.01
2018-05-26T12:57:24.363Z,40.80
2018-05-26T12:59:51.921Z,40.72
2018-05-26T13:02:19.523Z,43.18
2018-05-26T13:04:47.085Z,41.66
2018-05-26T13:07:14.702Z,41.68
2018-05-26T13:09:42.261Z,38.50
2018-05-26T13:12:09.819Z,39.52
2018-05-26T13:14:37.412Z,39.38
2018-05-26T13:17:04.989Z,38.26
2018-05-26T13:19:32.559Z,37.24
2018-05-26T13:22:00.114Z,37.54
2018-05-26T13:24:27.676Z,38.58
2018-05-26T13:26:55.220Z,37.85
2018-05-26T13:29:22.863Z,37.76
2018-05-26T13:31:50.432Z,37.05
2018-05-26T13:34:17.993Z,37.57
2018-05-26T13:36:45.550Z,36.54
2018-05-26T13:39:13.096Z,37.54
2018-05-26T13:41:40.664Z,39.27
2018-05-26T13:44:08.211Z,37.80
2018-05-26T13:46:35.772Z,39.22
2018-05-26T13:49:03.353Z,38.43
2018-05-26T13:51:30.956Z,35.78
2018-05-26T13:53:58.512Z,37.23
2018-05-26T13:56:26.171Z,36.41
2018-05-26T13:58:53.692Z,35.26
2018-05-26T14:01:21.264Z,35.81
2018-05-26T14:03:48.826Z,35.49
2018-05-26T14:06:16.583Z,35.62
2018-05-26T14:08:44.144Z,37.21
2018-05-26T14:11:11.768Z,37.59
2018-05-26T14:13:39.524Z,37.15
2018-05-26T14:16:07.103Z,37.28
2018-05-26T14:18:34.737Z,36.53
2018-05-26T14:21:02.350Z,37.68
2018-05-26T14:23:29.949Z,37.81
2018-05-26T14:25:57.589Z,37.07
2018-05-26T14:28:25.141Z,37.34
2018-05-26T14:30:52.820Z,39.14
2018-05-26T14:33:20.392Z,38.03
2018-05-26T14:35:48.017Z,38.59
2018-05-26T14:38:15.571Z,39.27
2018-05-26T14:40:43.122Z,39.14
2018-05-26T14:43:10.721Z,38.95
2018-05-26T14:45:38.283Z,38.43
2018-05-26T14:48:05.856Z,38.38
2018-05-26T14:50:33.406Z,38.96
2018-05-26T14:53:01.108Z,37.88
2018-05-26T14:55:28.833Z,38.85
2018-05-26T14:57:56.674Z,40.22
2018-05-26T15:00:24.289Z,40.15
2018-05-26T15:02:51.852Z,40.25
2018-05-26T15:05:19.425Z,39.91
2018-05-26T15:07:47.162Z,38.96
2018-05-26T15:10:14.787Z,38.93
2018-05-26T15:12:42.385Z,39.29
2018-05-26T15:15:09.956Z,40.94
2018-05-26T15:17:37.558Z,39.78
2018-05-26T15:20:05.189Z,40.40
2018-05-26T15:22:32.741Z,41.08
2018-05-26T15:25:00.288Z,41.25
2018-05-26T15:27:27.840Z,41.27
2018-05-26T15:29:55.390Z,40.89
2018-05-26T15:32:22.965Z,41.01
2018-05-26T15:34:50.521Z,42.60
2018-05-26T15:37:18.139Z,45.70
2018-05-26T15:39:45.753Z,47.35
2018-05-26T15:42:13.306Z,48.71
2018-05-26T15:44:40.912Z,49.26
2018-05-26T15:47:08.479Z,50.34
2018-05-26T15:49:36.056Z,50.47
2018-05-26T15:52:03.635Z,51.32
2018-05-26T15:54:31.219Z,51.97
2018-05-26T15:56:58.765Z,51.96
2018-05-26T15:59:26.380Z,52.28
2018-05-26T16:01:53.930Z,53.12
2018-05-26T16:04:21.488Z,53.59
2018-05-26T16:06:49.045Z,52.72
2018-05-26T16:09:16.622Z,53.27
2018-05-26T16:11:44.189Z,52.90
2018-05-26T16:14:11.738Z,53.66
2018-05-26T16:16:39.340Z,53.26
2018-05-26T16:19:06.910Z,52.93
2018-05-26T16:21:34.521Z,53.57
2018-05-26T16:24:02.077Z,52.95
2018-05-26T16:26:29.633Z,53.86
2018-05-26T16:28:57.426Z,52.96
2018-05-26T16:31:25.027Z,53.32
2018-05-26T16:33:52.613Z,53.94
2018-05-26T16:36:20.172Z,54.94
2018-05-26T16:38:47.804Z,54.90
2018-05-26T16:41:15.365Z,55.41
2018-05-26T16:43:42.944Z,53.29
2018-05-26T16:46:10.528Z,54.42
2018-05-26T16:48:38.093Z,55.03
2018-05-26T16:51:05.674Z,55.52
2018-05-26T16:53:33.244Z,55.12
2018-05-26T16:56:00.865Z,54.57
2018-05-26T16:58:28.542Z,54.88
2018-05-26T17:00:56.212Z,55.30
2018-05-26T17:03:23.778Z,55.79
2018-05-26T17:05:51.897Z,55.57
2018-05-26T17:08:19.508Z,56.69
2018-05-26T17:10:47.107Z,56.55
2018-05-26T17:13:14.786Z,57.13
2018-05-26T17:15:42.401Z,57.87
2018-05-26T17:18:09.981Z,58.59
2018-05-26T17:20:37.549Z,58.50
2018-05-26T17:23:05.130Z,58.68
2018-05-26T17:25:32.720Z,59.16
2018-05-26T17:28:00.287Z,58.05
2018-05-26T17:30:27.878Z,58.47
2018-05-26T17:32:55.432Z,60.01
2018-05-26T17:35:23.042Z,59.82
2018-05-26T17:37:50.597Z,58.89
2018-05-26T17:40:18.173Z,59.15
2018-05-26T17:42:45.756Z,61.11
2018-05-26T17:45:13.338Z,59.67
2018-05-26T17:47:40.920Z,59.26
2018-05-26T17:50:08.478Z,60.01
2018-05-26T17:52:36.048Z,61.57
2018-05-26T17:55:03.703Z,62.05
2018-05-26T17:57:31.405Z,62.92
2018-05-26T17:59:59.036Z,64.56
2018-05-26T18:02:26.654Z,66.83
2018-05-26T18:04:54.243Z,67.62
2018-05-26T18:07:21.886Z,67.97
2018-05-26T18:09:49.479Z,68.29
2018-05-26T18:12:17.047Z,68.36
2018-05-26T18:14:44.616Z,67.57
2018-05-26T18:17:12.178Z,67.78
2018-05-26T18:19:39.796Z,68.24
2018-05-26T18:22:07.369Z,67.98
2018-05-26T18:24:34.921Z,67.33
2018-05-26T18:27:02.493Z,65.77
2018-05-26T18:29:30.081Z,67.84
2018-05-26T18:31:57.703Z,69.32
2018-05-26T18:34:25.346Z,71.19
2018-05-26T18:36:53.172Z,72.06
2018-05-26T18:39:21.064Z,72.89
2018-05-26T18:41:49.004Z,73.92
2018-05-26T18:44:16.884Z,71.74
2018-05-26T18:46:44.836Z,71.69
2018-05-26T18:49:12.768Z,72.70
2018-05-26T18:51:41.076Z,72.20
2018-05-26T18:54:09.044Z,72.89
2018-05-26T18:56:36.881Z,72.09
2018-05-26T18:59:04.841Z,72.20
2018-05-26T19:01:32.740Z,71.48
2018-05-26T19:04:00.776Z,71.04
2018-05-26T19:06:28.744Z,71.18
2018-05-26T19:08:56.613Z,71.63
2018-05-26T19:11:24.849Z,72.14
2018-05-26T19:13:53.241Z,72.53
2018-05-26T19:16:21.229Z,71.54
2018-05-26T19:18:49.193Z,72.75
2018-05-26T19:21:17.199Z,74.78
2018-05-26T19:23:45.151Z,74.44
2018-05-26T19:26:13.563Z,74.94
2018-05-26T19:28:41.531Z,74.89
2018-05-26T19:31:09.481Z,75.18
2018-05-26T19:33:37.813Z,74.37
2018-05-26T19:36:06.213Z,74.00
2018-05-26T19:38:34.478Z,74.39
2018-05-26T19:41:02.679Z,75.23
2018-05-26T19:43:31.203Z,74.78
2018-05-26T19:45:59.519Z,75.78
2018-05-26T19:48:27.632Z,75.24
2018-05-26T19:50:55.973Z,75.45
2018-05-26T19:53:24.388Z,74.95
2018-05-26T19:55:52.811Z,75.01
2018-05-26T19:58:20.878Z,75.79
2018-05-26T20:00:49.023Z,76.62
2018-05-26T20:03:17.264Z,77.53
2018-05-26T20:05:45.690Z,76.99
2018-05-26T20:08:14.000Z,76.13
2018-05-26T20:10:42.416Z,75.74
2018-05-26T20:13:10.537Z,75.34
2018-05-26T20:15:38.999Z,74.97
2018-05-26T20:18:07.392Z,75.09
2018-05-26T20:20:35.546Z,75.33
2018-05-26T20:23:03.423Z,76.57
2018-05-26T20:25:31.434Z,79.58
2018-05-26T20:27:59.362Z,80.38
2018-05-26T20:30:27.384Z,81.59
2018-05-26T20:32:55.099Z,82.11
2018-05-26T20:35:23.259Z,82.41
2018-05-26T20:37:51.019Z,81.43
2018-05-26T20:40:18.700Z,81.28
2018-05-26T20:42:46.478Z,81.00
2018-05-26T20:45:14.056Z,80.36
2018-05-26T20:47:41.648Z,81.25
2018-05-26T20:50:09.333Z,80.64
2018-05-26T20:52:36.852Z,78.62
2018-05-26T20:55:04.436Z,77.93
2018-05-26T20:57:31.988Z,77.95
2018-05-26T20:59:59.581Z,77.75
2018-05-26T21:02:27.138Z,77.73
2018-05-26T21:04:54.692Z,77.43
2018-05-26T21:07:22.252Z,78.88
2018-05-26T21:09:49.808Z,80.00
2018-05-26T21:12:17.368Z,80.85
2018-05-26T21:14:44.924Z,82.02
2018-05-26T21:17:12.533Z,82.59
2018-05-26T21:19:40.088Z,82.84
2018-05-26T21:22:07.648Z,83.05
2018-05-26T21:24:35.228Z,83.35
2018-05-26T21:27:02.783Z,84.03
2018-05-26T21:29:30.349Z,84.37
2018-05-26T21:31:57.896Z,84.46
2018-05-26T21:34:25.469Z,84.07
2018-05-26T21:36:53.018Z,84.09
2018-05-26T21:39:20.635Z,84.14
2018-05-26T21:41:48.472Z,83.48
2018-05-26T21:44:16.025Z,83.62
2018-05-26T21:46:43.589Z,83.32
2018-05-26T21:49:11.169Z,83.37
2018-05-26T21:51:38.724Z,83.43
2018-05-26T21:54:06.287Z,83.79
2018-05-26T21:56:33.848Z,83.88
2018-05-26T21:59:01.401Z,84.06
2018-05-26T22:01:29.057Z,84.04
2018-05-26T22:03:56.615Z,84.18
2018-05-26T22:06:24.199Z,85.29
2018-05-26T22:08:51.747Z,85.37
2018-05-26T22:11:19.292Z,85.48
2018-05-26T22:13:46.849Z,85.78
2018-05-26T22:16:14.408Z,85.83
2018-05-26T22:18:41.964Z,86.14
2018-05-26T22:21:09.512Z,86.06
2018-05-26T22:23:37.177Z,86.19
2018-05-26T22:26:04.748Z,86.25
2018-05-26T22:28:32.294Z,86.53
2018-05-26T22:30:59.856Z,86.99
2018-05-26T22:33:27.404Z,86.91
2018-05-26T22:35:54.989Z,87.10
2018-05-26T22:38:22.537Z,87.56
2018-05-26T22:40:50.102Z,87.85
2018-05-26T22:43:17.705Z,87.71
2018-05-26T22:45:45.252Z,87.48
2018-05-26T22:48:12.828Z,87.87
2018-05-26T22:50:40.373Z,88.01
2018-05-26T22:53:07.928Z,87.21
2018-05-26T22:55:35.481Z,87.00
2018-05-26T22:58:03.030Z,87.41
2018-05-26T23:00:30.588Z,87.21
2018-05-26T23:02:58.174Z,87.34
2018-05-26T23:05:25.730Z,87.19
2018-05-26T23:07:53.272Z,87.02
2018-05-26T23:10:20.884Z,86.70
2018-05-26T23:12:48.432Z,87.17
2018-05-26T23:15:15.971Z,87.23
2018-05-26T23:17:43.528Z,87.33
2018-05-26T23:20:11.080Z,87.58
2018-05-26T23:22:38.644Z,87.56
2018-05-26T23:25:06.188Z,87.43
2018-05-26T23:27:33.802Z,87.31
2018-05-26T23:30:01.348Z,87.05
2018-05-26T23:32:28.925Z,87.09
2018-05-26T23:34:56.482Z,87.13
2018-05-26T23:37:24.020Z,87.02
2018-05-26T23:39:51.580Z,86.72
2018-05-26T23:42:19.126Z,86.42
2018-05-26T23:44:46.728Z,86.88
2018-05-26T23:47:14.273Z,87.22
2018-05-26T23:49:41.827Z,87.53
2018-05-26T23:52:09.387Z,87.63
2018-05-26T23:54:36.939Z,87.36
2018-05-26T23:57:04.536Z,87.85
2018-05-26T23:59:32.850Z,87.92
